Impacts METAR Board
IDs:

KSFO - San Francisco Intl, CA, US

Updated at: 1300 UTC 27 Feb 2021
Potential Impact None Slight Moderate High
Time 27/01Z 27/02Z 27/03Z 27/04Z 27/05Z 27/06Z 27/07Z 27/08Z 27/09Z 27/10Z 27/11Z 27/12Z 27/13Z
Temp55 53 52 51 51 50 50 50 49 48 47 45 45
Dewpt43 42 42 42 41 41 40 40 39 38 37 36 35
Altim30.09 30.08 30.08 30.10 30.10 30.12 30.11 30.12 30.13 30.14 30.14 30.14 30.14
VIS10 10 10 10 10 10 10 10 10 10 10 10 10
CIG-- -- -- -- -- -- -- -- -- -- -- -- --
CoverFEWFEWFEWCLRCLRCLRCLRCLRCLRCLRCLRCLRCLR
FltCatVFRVFRVFRVFRVFRVFRVFRVFRVFRVFRVFRVFRVFR
WX--------------------------
WDir290290290290290290280300270280280290280
WSpd24 25 24 19 20 15 15 10 8 8 6 8 7
WGst30 33 34 -- -- -- -- -- -- -- -- -- --
Raw hourly METARs
KSFO 270056Z 29024G30KT 10SM FEW015 FEW200 13/06 A3009 RMK AO2 PK WND 29033/0033 SLP190 T01280061
KSFO 270156Z 29025G33KT 10SM FEW015 FEW200 12/06 A3008 RMK AO2 PK WND 30034/0102 SLP187 T01170056
KSFO 270256Z 29024G34KT 10SM FEW015 11/06 A3008 RMK AO2 PK WND 29034/0250 SLP187 T01110056 56006
KSFO 270356Z 29019KT 10SM CLR 11/06 A3010 RMK AO2 PK WND 29034/0302 SLP191 T01060056
KSFO 270456Z 29020KT 10SM CLR 11/05 A3010 RMK AO2 PK WND 29026/0358 SLP193 T01060050
KSFO 270556Z 29015KT 10SM CLR 10/05 A3012 RMK AO2 PK WND 29026/0501 SLP200 T01000050 10139 20100 53013
KSFO 270656Z 28015KT 10SM CLR 10/04 A3011 RMK AO2 SLP194 T01000044
KSFO 270756Z 30010KT 10SM CLR 10/04 A3012 RMK AO2 SLP199 T01000044 401610083
KSFO 270856Z 27008KT 10SM CLR 09/04 A3013 RMK AO2 SLP203 T00940039 53003
KSFO 270956Z 28008KT 10SM CLR 09/03 A3014 RMK AO2 SLP207 T00890033
KSFO 271056Z 28006KT 10SM CLR 08/03 A3014 RMK AO2 SLP205 T00830028
KSFO 271156Z 29008KT 10SM CLR 07/02 A3014 RMK AO2 SLP205 T00720022 10100 20072 50002
KSFO 271256Z 28007KT 10SM CLR 07/02 A3014 RMK AO2 SLP207 T00720017 $



Page loaded:  13:06 UTC  |   05:06 AM Pacific  |   06:06 AM Mountain  |   07:06 AM Central  |   08:06 AM Eastern

 

ADVISORIES

FORECASTS

FORECASTS

OBSERVATIONS

USER TOOLS

ABOUT US